Decoded Metar for LETL (TERUEL in SPAIN) (IATA:N/A) | Meteo·Mobile Aviation Weather
aviador You're here:

LETL Decoded Metar

TERUEL in SPAIN
Report Time2018-08-20 18:30:00
UTC Time2018-08-20 18:44:20
Flight Rules vfr VFR
Wind170° at 02 kt
W.Rank170° ranks 13
Current wind is below 170° avg. (7.6)
Visibility9999 m
Phenomena:N/A
Clouds:N/A
Expected CloudBase > 8,400 ft AGL from Temp-Dew spread
CeilingNone
Temp26°C (ISA +18)
Dew Point05°C (26% RH)
AAT24.2°C
QNH1021 hPa
Density Alt5,249 ft
Elevation3,367 ft
Report Wrong Elevation
Raw Report
METAR LETL 201830Z AUTO 17002KT CAVOK 26/05 Q1021=

Extra information for LETL:More info

Metar Taf Metar & Taf Last 4 Metars F.Rules Stats Wind Profile Meteogram Temp Stats Airport Information Weather charts Add Link Nearby VenuesMetar ALERT Operation Metar Decoded Social comments